sensor_id;sensor_type;location;lat;lon;timestamp;P1;durP1;ratioP1;P2;durP2;ratioP2
19951;SDS011;10137;49.406;19.484;2022-12-18T00:01:45;60.20;;;22.07;;
19951;SDS011;10137;49.406;19.484;2022-12-18T00:04:16;55.77;;;21.00;;
19951;SDS011;10137;49.406;19.484;2022-12-18T00:06:47;49.23;;;19.87;;
19951;SDS011;10137;49.406;19.484;2022-12-18T00:09:14;58.40;;;21.17;;
19951;SDS011;10137;49.406;19.484;2022-12-18T00:11:41;55.27;;;20.90;;
19951;SDS011;10137;49.406;19.484;2022-12-18T00:14:10;55.80;;;20.20;;
19951;SDS011;10137;49.406;19.484;2022-12-18T00:16:39;54.07;;;21.03;;
19951;SDS011;10137;49.406;19.484;2022-12-18T00:19:06;55.73;;;21.23;;
19951;SDS011;10137;49.406;19.484;2022-12-18T00:21:33;54.53;;;21.00;;
19951;SDS011;10137;49.406;19.484;2022-12-18T00:24:00;57.47;;;21.17;;
19951;SDS011;10137;49.406;19.484;2022-12-18T00:26:28;65.90;;;21.23;;
19951;SDS011;10137;49.406;19.484;2022-12-18T00:28:58;55.47;;;20.80;;
19951;SDS011;10137;49.406;19.484;2022-12-18T00:31:28;63.20;;;21.50;;
19951;SDS011;10137;49.406;19.484;2022-12-18T00:33:54;58.97;;;21.50;;
19951;SDS011;10137;49.406;19.484;2022-12-18T00:36:22;62.70;;;23.43;;
19951;SDS011;10137;49.406;19.484;2022-12-18T00:38:51;62.37;;;24.33;;
19951;SDS011;10137;49.406;19.484;2022-12-18T00:41:19;59.10;;;22.37;;
19951;SDS011;10137;49.406;19.484;2022-12-18T00:44:01;59.20;;;22.10;;
19951;SDS011;10137;49.406;19.484;2022-12-18T00:46:30;59.13;;;23.70;;
19951;SDS011;10137;49.406;19.484;2022-12-18T00:48:58;59.73;;;21.83;;
19951;SDS011;10137;49.406;19.484;2022-12-18T00:51:25;57.20;;;22.00;;
19951;SDS011;10137;49.406;19.484;2022-12-18T00:53:52;61.70;;;22.23;;
19951;SDS011;10137;49.406;19.484;2022-12-18T00:56:19;70.10;;;23.13;;
19951;SDS011;10137;49.406;19.484;2022-12-18T00:58:46;61.20;;;22.37;;
19951;SDS011;10137;49.406;19.484;2022-12-18T01:01:14;66.57;;;23.43;;
19951;SDS011;10137;49.406;19.484;2022-12-18T01:03:42;67.80;;;23.17;;
19951;SDS011;10137;49.406;19.484;2022-12-18T01:06:12;62.93;;;23.47;;
19951;SDS011;10137;49.406;19.484;2022-12-18T01:08:41;59.53;;;22.83;;
19951;SDS011;10137;49.406;19.484;2022-12-18T01:11:09;64.20;;;22.70;;
19951;SDS011;10137;49.406;19.484;2022-12-18T01:13:37;65.80;;;23.43;;
19951;SDS011;10137;49.406;19.484;2022-12-18T01:16:05;61.33;;;23.77;;
19951;SDS011;10137;49.406;19.484;2022-12-18T01:18:32;69.40;;;23.97;;
19951;SDS011;10137;49.406;19.484;2022-12-18T01:21:02;59.40;;;22.10;;
19951;SDS011;10137;49.406;19.484;2022-12-18T01:23:32;63.60;;;24.00;;
19951;SDS011;10137;49.406;19.484;2022-12-18T01:26:03;61.97;;;22.30;;
19951;SDS011;10137;49.406;19.484;2022-12-18T01:28:31;60.93;;;20.67;;
19951;SDS011;10137;49.406;19.484;2022-12-18T01:31:08;55.83;;;20.73;;
19951;SDS011;10137;49.406;19.484;2022-12-18T01:33:39;56.47;;;19.77;;
19951;SDS011;10137;49.406;19.484;2022-12-18T01:36:13;52.30;;;19.63;;
19951;SDS011;10137;49.406;19.484;2022-12-18T01:38:42;51.27;;;19.30;;
19951;SDS011;10137;49.406;19.484;2022-12-18T01:41:09;60.33;;;20.50;;
19951;SDS011;10137;49.406;19.484;2022-12-18T01:43:47;60.57;;;20.67;;
19951;SDS011;10137;49.406;19.484;2022-12-18T01:46:24;63.63;;;20.63;;
19951;SDS011;10137;49.406;19.484;2022-12-18T01:48:53;63.77;;;22.27;;
19951;SDS011;10137;49.406;19.484;2022-12-18T01:51:24;57.23;;;20.40;;
19951;SDS011;10137;49.406;19.484;2022-12-18T01:53:53;58.53;;;22.17;;
19951;SDS011;10137;49.406;19.484;2022-12-18T01:56:20;57.33;;;19.30;;
19951;SDS011;10137;49.406;19.484;2022-12-18T01:58:53;52.00;;;19.00;;
19951;SDS011;10137;49.406;19.484;2022-12-18T02:01:23;52.13;;;19.20;;
19951;SDS011;10137;49.406;19.484;2022-12-18T02:03:50;48.83;;;19.13;;
19951;SDS011;10137;49.406;19.484;2022-12-18T02:06:19;55.47;;;19.90;;
19951;SDS011;10137;49.406;19.484;2022-12-18T02:08:56;54.20;;;20.07;;
19951;SDS011;10137;49.406;19.484;2022-12-18T02:11:32;63.10;;;22.77;;
19951;SDS011;10137;49.406;19.484;2022-12-18T02:14:08;62.93;;;22.27;;
19951;SDS011;10137;49.406;19.484;2022-12-18T02:16:44;60.80;;;22.67;;
19951;SDS011;10137;49.406;19.484;2022-12-18T02:19:20;70.47;;;23.00;;
19951;SDS011;10137;49.406;19.484;2022-12-18T02:22:07;65.33;;;21.90;;
19951;SDS011;10137;49.406;19.484;2022-12-18T02:24:48;62.17;;;21.97;;
19951;SDS011;10137;49.406;19.484;2022-12-18T02:27:25;59.23;;;22.13;;
19951;SDS011;10137;49.406;19.484;2022-12-18T02:29:55;65.83;;;22.67;;
19951;SDS011;10137;49.406;19.484;2022-12-18T02:32:25;62.63;;;22.57;;
19951;SDS011;10137;49.406;19.484;2022-12-18T02:34:55;62.67;;;21.57;;
19951;SDS011;10137;49.406;19.484;2022-12-18T02:37:23;62.10;;;21.77;;
19951;SDS011;10137;49.406;19.484;2022-12-18T02:39:53;61.80;;;21.77;;
19951;SDS011;10137;49.406;19.484;2022-12-18T02:42:23;63.03;;;22.57;;
19951;SDS011;10137;49.406;19.484;2022-12-18T02:44:54;61.73;;;23.00;;
19951;SDS011;10137;49.406;19.484;2022-12-18T02:47:22;65.97;;;23.37;;
19951;SDS011;10137;49.406;19.484;2022-12-18T02:49:54;69.90;;;21.40;;
19951;SDS011;10137;49.406;19.484;2022-12-18T02:52:30;61.10;;;22.17;;
19951;SDS011;10137;49.406;19.484;2022-12-18T02:55:05;55.17;;;20.07;;
19951;SDS011;10137;49.406;19.484;2022-12-18T02:57:44;54.17;;;20.30;;
19951;SDS011;10137;49.406;19.484;2022-12-18T03:00:17;58.97;;;20.77;;
19951;SDS011;10137;49.406;19.484;2022-12-18T03:02:48;58.47;;;19.83;;
19951;SDS011;10137;49.406;19.484;2022-12-18T03:05:19;53.40;;;19.60;;
19951;SDS011;10137;49.406;19.484;2022-12-18T03:07:51;58.80;;;20.50;;
19951;SDS011;10137;49.406;19.484;2022-12-18T03:10:25;51.40;;;18.30;;
19951;SDS011;10137;49.406;19.484;2022-12-18T03:12:56;56.20;;;19.37;;
19951;SDS011;10137;49.406;19.484;2022-12-18T03:15:28;53.93;;;18.67;;
19951;SDS011;10137;49.406;19.484;2022-12-18T03:18:01;59.63;;;20.13;;
19951;SDS011;10137;49.406;19.484;2022-12-18T03:20:31;54.43;;;21.23;;
19951;SDS011;10137;49.406;19.484;2022-12-18T03:23:03;62.60;;;21.70;;
19951;SDS011;10137;49.406;19.484;2022-12-18T03:25:35;66.13;;;22.07;;
19951;SDS011;10137;49.406;19.484;2022-12-18T03:28:07;58.50;;;21.07;;
19951;SDS011;10137;49.406;19.484;2022-12-18T03:30:38;52.87;;;20.63;;
19951;SDS011;10137;49.406;19.484;2022-12-18T03:33:08;54.97;;;20.90;;
19951;SDS011;10137;49.406;19.484;2022-12-18T03:35:39;59.73;;;20.80;;
19951;SDS011;10137;49.406;19.484;2022-12-18T03:38:08;62.57;;;20.47;;
19951;SDS011;10137;49.406;19.484;2022-12-18T03:40:39;55.27;;;20.73;;
19951;SDS011;10137;49.406;19.484;2022-12-18T03:43:16;64.37;;;22.43;;
19951;SDS011;10137;49.406;19.484;2022-12-18T03:45:48;65.53;;;21.37;;
19951;SDS011;10137;49.406;19.484;2022-12-18T03:48:21;53.80;;;20.83;;
19951;SDS011;10137;49.406;19.484;2022-12-18T03:50:55;62.03;;;21.40;;
19951;SDS011;10137;49.406;19.484;2022-12-18T03:53:25;60.87;;;21.13;;
19951;SDS011;10137;49.406;19.484;2022-12-18T03:56:01;53.50;;;22.53;;
19951;SDS011;10137;49.406;19.484;2022-12-18T03:58:31;55.97;;;19.57;;
19951;SDS011;10137;49.406;19.484;2022-12-18T04:01:01;54.70;;;19.93;;
19951;SDS011;10137;49.406;19.484;2022-12-18T04:03:32;60.07;;;21.07;;
19951;SDS011;10137;49.406;19.484;2022-12-18T04:06:01;57.90;;;20.13;;
19951;SDS011;10137;49.406;19.484;2022-12-18T04:08:29;60.77;;;20.07;;
19951;SDS011;10137;49.406;19.484;2022-12-18T04:10:56;59.37;;;20.03;;
19951;SDS011;10137;49.406;19.484;2022-12-18T04:13:24;61.63;;;21.93;;
19951;SDS011;10137;49.406;19.484;2022-12-18T04:15:55;74.47;;;23.23;;
19951;SDS011;10137;49.406;19.484;2022-12-18T04:18:22;73.03;;;23.70;;
19951;SDS011;10137;49.406;19.484;2022-12-18T04:20:49;69.37;;;21.80;;
19951;SDS011;10137;49.406;19.484;2022-12-18T04:23:16;67.50;;;23.97;;
19951;SDS011;10137;49.406;19.484;2022-12-18T04:25:43;71.13;;;24.27;;
19951;SDS011;10137;49.406;19.484;2022-12-18T04:28:10;66.30;;;23.73;;
19951;SDS011;10137;49.406;19.484;2022-12-18T04:30:37;64.00;;;23.03;;
19951;SDS011;10137;49.406;19.484;2022-12-18T04:33:07;66.47;;;22.37;;
19951;SDS011;10137;49.406;19.484;2022-12-18T04:35:35;61.43;;;22.20;;
19951;SDS011;10137;49.406;19.484;2022-12-18T04:38:02;58.97;;;20.57;;
19951;SDS011;10137;49.406;19.484;2022-12-18T04:40:29;58.27;;;21.13;;
19951;SDS011;10137;49.406;19.484;2022-12-18T04:42:56;55.57;;;19.50;;
19951;SDS011;10137;49.406;19.484;2022-12-18T04:45:23;54.73;;;19.03;;
19951;SDS011;10137;49.406;19.484;2022-12-18T04:47:49;56.80;;;21.90;;
19951;SDS011;10137;49.406;19.484;2022-12-18T04:50:18;57.87;;;19.40;;
19951;SDS011;10137;49.406;19.484;2022-12-18T04:52:45;62.67;;;21.57;;
19951;SDS011;10137;49.406;19.484;2022-12-18T04:55:12;63.37;;;20.43;;
19951;SDS011;10137;49.406;19.484;2022-12-18T04:57:39;62.73;;;21.20;;
19951;SDS011;10137;49.406;19.484;2022-12-18T05:00:06;63.83;;;20.93;;
19951;SDS011;10137;49.406;19.484;2022-12-18T05:02:34;57.73;;;19.60;;
19951;SDS011;10137;49.406;19.484;2022-12-18T05:05:01;59.90;;;21.13;;
19951;SDS011;10137;49.406;19.484;2022-12-18T05:07:29;68.10;;;23.33;;
19951;SDS011;10137;49.406;19.484;2022-12-18T05:09:56;63.73;;;22.87;;
19951;SDS011;10137;49.406;19.484;2022-12-18T05:12:23;66.77;;;21.63;;
19951;SDS011;10137;49.406;19.484;2022-12-18T05:14:50;59.93;;;22.07;;
19951;SDS011;10137;49.406;19.484;2022-12-18T05:17:17;64.80;;;22.23;;
19951;SDS011;10137;49.406;19.484;2022-12-18T05:19:44;56.23;;;21.17;;
19951;SDS011;10137;49.406;19.484;2022-12-18T05:22:11;65.80;;;20.83;;
19951;SDS011;10137;49.406;19.484;2022-12-18T05:24:40;56.07;;;19.93;;
19951;SDS011;10137;49.406;19.484;2022-12-18T05:27:06;54.60;;;20.43;;
19951;SDS011;10137;49.406;19.484;2022-12-18T05:29:33;54.20;;;18.87;;
19951;SDS011;10137;49.406;19.484;2022-12-18T05:32:00;59.33;;;19.77;;
19951;SDS011;10137;49.406;19.484;2022-12-18T05:34:27;54.23;;;21.10;;
19951;SDS011;10137;49.406;19.484;2022-12-18T05:36:54;62.23;;;21.17;;
19951;SDS011;10137;49.406;19.484;2022-12-18T05:39:21;59.97;;;22.33;;
19951;SDS011;10137;49.406;19.484;2022-12-18T05:41:50;56.13;;;21.30;;
19951;SDS011;10137;49.406;19.484;2022-12-18T05:44:17;62.13;;;20.97;;
19951;SDS011;10137;49.406;19.484;2022-12-18T05:46:44;71.10;;;21.10;;
19951;SDS011;10137;49.406;19.484;2022-12-18T05:49:10;58.17;;;21.90;;
19951;SDS011;10137;49.406;19.484;2022-12-18T05:51:37;66.30;;;24.03;;
19951;SDS011;10137;49.406;19.484;2022-12-18T05:54:06;70.63;;;22.87;;
19951;SDS011;10137;49.406;19.484;2022-12-18T05:56:32;74.07;;;25.23;;
19951;SDS011;10137;49.406;19.484;2022-12-18T05:59:01;71.50;;;24.03;;
19951;SDS011;10137;49.406;19.484;2022-12-18T06:01:28;64.13;;;22.60;;
19951;SDS011;10137;49.406;19.484;2022-12-18T06:03:55;72.73;;;23.73;;
19951;SDS011;10137;49.406;19.484;2022-12-18T06:06:23;62.57;;;22.77;;
19951;SDS011;10137;49.406;19.484;2022-12-18T06:08:51;73.20;;;24.43;;
19951;SDS011;10137;49.406;19.484;2022-12-18T06:11:18;71.20;;;25.50;;
19951;SDS011;10137;49.406;19.484;2022-12-18T06:13:49;82.37;;;24.53;;
19951;SDS011;10137;49.406;19.484;2022-12-18T06:16:18;71.73;;;25.10;;
19951;SDS011;10137;49.406;19.484;2022-12-18T06:18:45;75.97;;;25.87;;
19951;SDS011;10137;49.406;19.484;2022-12-18T06:21:12;74.77;;;24.53;;
19951;SDS011;10137;49.406;19.484;2022-12-18T06:23:39;72.67;;;25.80;;
19951;SDS011;10137;49.406;19.484;2022-12-18T06:26:07;78.63;;;27.20;;
19951;SDS011;10137;49.406;19.484;2022-12-18T06:28:35;68.17;;;26.23;;
19951;SDS011;10137;49.406;19.484;2022-12-18T06:31:02;82.97;;;30.00;;
19951;SDS011;10137;49.406;19.484;2022-12-18T06:33:31;84.10;;;28.70;;
19951;SDS011;10137;49.406;19.484;2022-12-18T06:35:59;89.07;;;32.17;;
19951;SDS011;10137;49.406;19.484;2022-12-18T06:38:27;81.20;;;29.33;;
19951;SDS011;10137;49.406;19.484;2022-12-18T06:40:54;82.60;;;27.03;;
19951;SDS011;10137;49.406;19.484;2022-12-18T06:43:21;80.63;;;32.27;;
19951;SDS011;10137;49.406;19.484;2022-12-18T06:45:48;69.67;;;25.57;;
19951;SDS011;10137;49.406;19.484;2022-12-18T06:48:17;75.23;;;26.17;;
19951;SDS011;10137;49.406;19.484;2022-12-18T06:50:46;74.53;;;28.33;;
19951;SDS011;10137;49.406;19.484;2022-12-18T06:53:13;67.57;;;25.60;;
19951;SDS011;10137;49.406;19.484;2022-12-18T06:55:40;75.97;;;26.93;;
19951;SDS011;10137;49.406;19.484;2022-12-18T06:58:07;70.60;;;27.23;;
19951;SDS011;10137;49.406;19.484;2022-12-18T07:00:34;84.97;;;28.33;;
19951;SDS011;10137;49.406;19.484;2022-12-18T07:03:01;86.17;;;29.00;;
19951;SDS011;10137;49.406;19.484;2022-12-18T07:05:28;86.70;;;31.10;;
19951;SDS011;10137;49.406;19.484;2022-12-18T07:07:57;96.40;;;29.93;;
19951;SDS011;10137;49.406;19.484;2022-12-18T07:10:24;82.87;;;30.33;;
19951;SDS011;10137;49.406;19.484;2022-12-18T07:12:51;87.97;;;32.53;;
19951;SDS011;10137;49.406;19.484;2022-12-18T07:15:18;91.20;;;30.70;;
19951;SDS011;10137;49.406;19.484;2022-12-18T07:17:45;89.47;;;35.67;;
19951;SDS011;10137;49.406;19.484;2022-12-18T07:20:12;84.43;;;32.20;;
19951;SDS011;10137;49.406;19.484;2022-12-18T07:22:39;101.00;;;34.87;;
19951;SDS011;10137;49.406;19.484;2022-12-18T07:25:08;85.57;;;34.20;;
19951;SDS011;10137;49.406;19.484;2022-12-18T07:27:35;108.60;;;34.23;;
19951;SDS011;10137;49.406;19.484;2022-12-18T07:30:02;90.00;;;32.87;;
19951;SDS011;10137;49.406;19.484;2022-12-18T07:32:30;93.03;;;33.67;;
19951;SDS011;10137;49.406;19.484;2022-12-18T07:34:57;103.80;;;36.03;;
19951;SDS011;10137;49.406;19.484;2022-12-18T07:37:24;104.17;;;36.27;;
19951;SDS011;10137;49.406;19.484;2022-12-18T07:39:51;106.30;;;37.40;;
19951;SDS011;10137;49.406;19.484;2022-12-18T07:42:19;122.00;;;39.50;;
19951;SDS011;10137;49.406;19.484;2022-12-18T07:44:58;104.77;;;35.77;;
19951;SDS011;10137;49.406;19.484;2022-12-18T07:47:26;100.27;;;33.30;;
19951;SDS011;10137;49.406;19.484;2022-12-18T07:49:54;87.23;;;32.57;;
19951;SDS011;10137;49.406;19.484;2022-12-18T07:52:21;96.23;;;32.07;;
19951;SDS011;10137;49.406;19.484;2022-12-18T07:54:48;90.30;;;31.33;;
19951;SDS011;10137;49.406;19.484;2022-12-18T07:57:15;94.00;;;34.87;;
19951;SDS011;10137;49.406;19.484;2022-12-18T07:59:44;98.60;;;38.27;;
19951;SDS011;10137;49.406;19.484;2022-12-18T08:02:11;122.07;;;40.57;;
19951;SDS011;10137;49.406;19.484;2022-12-18T08:04:38;116.53;;;37.90;;
19951;SDS011;10137;49.406;19.484;2022-12-18T08:07:05;106.23;;;36.73;;
19951;SDS011;10137;49.406;19.484;2022-12-18T08:09:32;125.10;;;51.53;;
19951;SDS011;10137;49.406;19.484;2022-12-18T08:11:59;108.93;;;39.70;;
19951;SDS011;10137;49.406;19.484;2022-12-18T08:14:26;116.47;;;38.87;;
19951;SDS011;10137;49.406;19.484;2022-12-18T08:16:54;108.43;;;38.03;;
19951;SDS011;10137;49.406;19.484;2022-12-18T08:19:21;99.07;;;35.63;;
19951;SDS011;10137;49.406;19.484;2022-12-18T08:21:48;111.87;;;37.97;;
19951;SDS011;10137;49.406;19.484;2022-12-18T08:24:15;120.43;;;35.67;;
19951;SDS011;10137;49.406;19.484;2022-12-18T08:26:43;132.17;;;41.93;;
19951;SDS011;10137;49.406;19.484;2022-12-18T08:29:10;100.60;;;34.93;;
19951;SDS011;10137;49.406;19.484;2022-12-18T08:31:37;94.07;;;32.03;;
19951;SDS011;10137;49.406;19.484;2022-12-18T08:34:05;110.93;;;36.40;;
19951;SDS011;10137;49.406;19.484;2022-12-18T08:36:34;129.30;;;42.73;;
19951;SDS011;10137;49.406;19.484;2022-12-18T08:39:01;147.57;;;50.23;;
19951;SDS011;10137;49.406;19.484;2022-12-18T08:41:28;180.97;;;55.07;;
19951;SDS011;10137;49.406;19.484;2022-12-18T08:43:55;112.73;;;39.30;;
19951;SDS011;10137;49.406;19.484;2022-12-18T08:46:39;104.87;;;36.83;;
19951;SDS011;10137;49.406;19.484;2022-12-18T08:49:09;82.23;;;33.77;;
19951;SDS011;10137;49.406;19.484;2022-12-18T08:51:37;76.33;;;28.67;;
19951;SDS011;10137;49.406;19.484;2022-12-18T08:54:05;77.50;;;27.87;;
19951;SDS011;10137;49.406;19.484;2022-12-18T08:56:33;79.60;;;27.50;;
19951;SDS011;10137;49.406;19.484;2022-12-18T08:59:00;74.47;;;27.57;;
19951;SDS011;10137;49.406;19.484;2022-12-18T09:01:27;79.90;;;29.73;;
19951;SDS011;10137;49.406;19.484;2022-12-18T09:03:54;99.07;;;32.03;;
19951;SDS011;10137;49.406;19.484;2022-12-18T09:06:23;138.90;;;41.37;;
19951;SDS011;10137;49.406;19.484;2022-12-18T09:08:51;175.30;;;50.40;;
19951;SDS011;10137;49.406;19.484;2022-12-18T09:11:20;163.30;;;48.33;;
19951;SDS011;10137;49.406;19.484;2022-12-18T09:13:50;131.43;;;40.43;;
19951;SDS011;10137;49.406;19.484;2022-12-18T09:16:17;99.70;;;33.60;;
19951;SDS011;10137;49.406;19.484;2022-12-18T09:18:44;86.60;;;32.40;;
19951;SDS011;10137;49.406;19.484;2022-12-18T09:21:12;96.90;;;33.40;;
19951;SDS011;10137;49.406;19.484;2022-12-18T09:23:41;103.13;;;38.23;;
19951;SDS011;10137;49.406;19.484;2022-12-18T09:26:09;113.37;;;37.43;;
19951;SDS011;10137;49.406;19.484;2022-12-18T09:28:36;117.07;;;39.27;;
19951;SDS011;10137;49.406;19.484;2022-12-18T09:31:03;94.17;;;35.63;;
19951;SDS011;10137;49.406;19.484;2022-12-18T09:33:32;97.77;;;34.57;;
19951;SDS011;10137;49.406;19.484;2022-12-18T09:36:01;90.27;;;32.77;;
19951;SDS011;10137;49.406;19.484;2022-12-18T09:38:29;105.67;;;34.00;;
19951;SDS011;10137;49.406;19.484;2022-12-18T09:40:59;104.10;;;33.43;;
19951;SDS011;10137;49.406;19.484;2022-12-18T09:43:29;90.77;;;33.23;;
19951;SDS011;10137;49.406;19.484;2022-12-18T09:46:03;79.63;;;30.80;;
19951;SDS011;10137;49.406;19.484;2022-12-18T09:48:34;78.23;;;27.10;;
19951;SDS011;10137;49.406;19.484;2022-12-18T09:51:05;81.63;;;28.13;;
19951;SDS011;10137;49.406;19.484;2022-12-18T09:53:42;73.37;;;24.93;;
19951;SDS011;10137;49.406;19.484;2022-12-18T09:56:15;88.67;;;31.13;;
19951;SDS011;10137;49.406;19.484;2022-12-18T09:58:45;105.73;;;34.37;;
19951;SDS011;10137;49.406;19.484;2022-12-18T10:01:18;99.03;;;33.60;;
19951;SDS011;10137;49.406;19.484;2022-12-18T10:03:47;104.33;;;34.97;;
19951;SDS011;10137;49.406;19.484;2022-12-18T10:06:15;101.57;;;35.37;;
19951;SDS011;10137;49.406;19.484;2022-12-18T10:08:47;102.67;;;36.23;;
19951;SDS011;10137;49.406;19.484;2022-12-18T10:11:24;95.80;;;34.50;;
19951;SDS011;10137;49.406;19.484;2022-12-18T10:14:00;95.27;;;33.37;;
19951;SDS011;10137;49.406;19.484;2022-12-18T10:16:39;91.93;;;33.60;;
19951;SDS011;10137;49.406;19.484;2022-12-18T10:19:18;91.60;;;32.13;;
19951;SDS011;10137;49.406;19.484;2022-12-18T10:21:55;83.37;;;30.00;;
19951;SDS011;10137;49.406;19.484;2022-12-18T10:24:30;83.37;;;29.23;;
19951;SDS011;10137;49.406;19.484;2022-12-18T10:27:09;78.57;;;25.23;;
19951;SDS011;10137;49.406;19.484;2022-12-18T10:29:41;75.33;;;23.80;;
19951;SDS011;10137;49.406;19.484;2022-12-18T10:32:09;67.07;;;24.87;;
19951;SDS011;10137;49.406;19.484;2022-12-18T10:34:44;79.90;;;26.17;;
19951;SDS011;10137;49.406;19.484;2022-12-18T10:37:12;69.13;;;22.80;;
19951;SDS011;10137;49.406;19.484;2022-12-18T10:39:43;68.93;;;24.47;;
19951;SDS011;10137;49.406;19.484;2022-12-18T10:42:16;69.83;;;24.00;;
19951;SDS011;10137;49.406;19.484;2022-12-18T10:44:44;67.27;;;23.70;;
19951;SDS011;10137;49.406;19.484;2022-12-18T10:47:12;76.53;;;24.70;;
19951;SDS011;10137;49.406;19.484;2022-12-18T10:49:49;70.37;;;22.47;;
19951;SDS011;10137;49.406;19.484;2022-12-18T10:52:20;69.50;;;22.30;;
19951;SDS011;10137;49.406;19.484;2022-12-18T10:54:50;68.83;;;23.77;;
19951;SDS011;10137;49.406;19.484;2022-12-18T10:57:30;74.13;;;23.10;;
19951;SDS011;10137;49.406;19.484;2022-12-18T11:00:18;70.80;;;22.20;;
19951;SDS011;10137;49.406;19.484;2022-12-18T11:02:50;73.57;;;22.90;;
19951;SDS011;10137;49.406;19.484;2022-12-18T11:05:25;70.13;;;23.77;;
19951;SDS011;10137;49.406;19.484;2022-12-18T11:07:55;74.83;;;24.20;;
19951;SDS011;10137;49.406;19.484;2022-12-18T11:10:23;74.63;;;25.43;;
19951;SDS011;10137;49.406;19.484;2022-12-18T11:12:55;71.70;;;24.03;;
19951;SDS011;10137;49.406;19.484;2022-12-18T11:15:35;85.57;;;26.07;;
19951;SDS011;10137;49.406;19.484;2022-12-18T11:18:02;77.10;;;25.50;;
19951;SDS011;10137;49.406;19.484;2022-12-18T11:20:30;71.80;;;25.23;;
19951;SDS011;10137;49.406;19.484;2022-12-18T11:23:00;77.17;;;24.57;;
19951;SDS011;10137;49.406;19.484;2022-12-18T11:25:30;76.27;;;25.57;;
19951;SDS011;10137;49.406;19.484;2022-12-18T11:28:00;82.27;;;27.20;;
19951;SDS011;10137;49.406;19.484;2022-12-18T11:30:29;72.57;;;25.33;;
19951;SDS011;10137;49.406;19.484;2022-12-18T11:33:01;74.13;;;25.53;;
19951;SDS011;10137;49.406;19.484;2022-12-18T11:35:36;81.20;;;24.67;;
19951;SDS011;10137;49.406;19.484;2022-12-18T11:38:09;68.87;;;24.30;;
19951;SDS011;10137;49.406;19.484;2022-12-18T11:40:42;78.27;;;26.63;;
19951;SDS011;10137;49.406;19.484;2022-12-18T11:43:14;86.70;;;28.33;;
19951;SDS011;10137;49.406;19.484;2022-12-18T11:45:47;75.97;;;25.23;;
19951;SDS011;10137;49.406;19.484;2022-12-18T11:48:19;82.27;;;26.07;;
19951;SDS011;10137;49.406;19.484;2022-12-18T11:50:51;77.30;;;27.37;;
19951;SDS011;10137;49.406;19.484;2022-12-18T11:53:19;102.27;;;36.97;;
19951;SDS011;10137;49.406;19.484;2022-12-18T11:55:50;83.20;;;28.07;;
19951;SDS011;10137;49.406;19.484;2022-12-18T11:58:29;69.57;;;24.83;;
19951;SDS011;10137;49.406;19.484;2022-12-18T12:01:09;76.07;;;26.40;;
19951;SDS011;10137;49.406;19.484;2022-12-18T12:03:47;75.03;;;25.47;;
19951;SDS011;10137;49.406;19.484;2022-12-18T12:06:28;71.93;;;25.63;;
19951;SDS011;10137;49.406;19.484;2022-12-18T12:09:04;80.07;;;26.27;;
19951;SDS011;10137;49.406;19.484;2022-12-18T12:11:42;86.77;;;27.17;;
19951;SDS011;10137;49.406;19.484;2022-12-18T12:14:27;81.03;;;26.17;;
19951;SDS011;10137;49.406;19.484;2022-12-18T12:17:07;77.50;;;26.53;;
19951;SDS011;10137;49.406;19.484;2022-12-18T12:19:42;85.47;;;28.33;;
19951;SDS011;10137;49.406;19.484;2022-12-18T12:22:18;101.77;;;30.90;;
19951;SDS011;10137;49.406;19.484;2022-12-18T12:24:58;86.17;;;28.30;;
19951;SDS011;10137;49.406;19.484;2022-12-18T12:27:36;84.77;;;27.47;;
19951;SDS011;10137;49.406;19.484;2022-12-18T12:30:15;88.33;;;28.93;;
19951;SDS011;10137;49.406;19.484;2022-12-18T12:32:51;88.97;;;29.67;;
19951;SDS011;10137;49.406;19.484;2022-12-18T12:35:35;84.60;;;27.20;;
19951;SDS011;10137;49.406;19.484;2022-12-18T12:38:11;85.13;;;27.47;;
19951;SDS011;10137;49.406;19.484;2022-12-18T12:40:43;93.30;;;30.20;;
19951;SDS011;10137;49.406;19.484;2022-12-18T12:43:20;383.03;;;97.83;;
19951;SDS011;10137;49.406;19.484;2022-12-18T12:45:54;179.23;;;52.13;;
19951;SDS011;10137;49.406;19.484;2022-12-18T12:48:29;95.43;;;30.23;;
19951;SDS011;10137;49.406;19.484;2022-12-18T12:51:01;89.63;;;29.63;;
19951;SDS011;10137;49.406;19.484;2022-12-18T12:53:35;90.97;;;27.50;;
19951;SDS011;10137;49.406;19.484;2022-12-18T12:56:04;90.13;;;28.40;;
19951;SDS011;10137;49.406;19.484;2022-12-18T12:58:33;95.43;;;30.63;;
19951;SDS011;10137;49.406;19.484;2022-12-18T13:01:12;75.97;;;27.10;;
19951;SDS011;10137;49.406;19.484;2022-12-18T13:03:51;85.47;;;27.93;;
19951;SDS011;10137;49.406;19.484;2022-12-18T13:06:24;83.07;;;30.10;;
19951;SDS011;10137;49.406;19.484;2022-12-18T13:08:59;90.27;;;29.37;;
19951;SDS011;10137;49.406;19.484;2022-12-18T13:11:30;92.37;;;29.97;;
19951;SDS011;10137;49.406;19.484;2022-12-18T13:14:22;88.53;;;28.27;;
19951;SDS011;10137;49.406;19.484;2022-12-18T13:16:53;99.90;;;31.50;;
19951;SDS011;10137;49.406;19.484;2022-12-18T13:20:02;90.97;;;29.30;;
19951;SDS011;10137;49.406;19.484;2022-12-18T13:22:34;93.47;;;29.23;;
19951;SDS011;10137;49.406;19.484;2022-12-18T13:25:02;83.93;;;28.13;;
19951;SDS011;10137;49.406;19.484;2022-12-18T13:28:00;79.40;;;28.10;;
19951;SDS011;10137;49.406;19.484;2022-12-18T13:30:43;90.37;;;29.77;;
19951;SDS011;10137;49.406;19.484;2022-12-18T13:36:29;101.73;;;34.40;;
19951;SDS011;10137;49.406;19.484;2022-12-18T13:41:51;97.23;;;31.47;;
19951;SDS011;10137;49.406;19.484;2022-12-18T13:44:24;109.53;;;33.47;;
19951;SDS011;10137;49.406;19.484;2022-12-18T13:46:56;98.70;;;31.60;;
19951;SDS011;10137;49.406;19.484;2022-12-18T13:49:26;87.33;;;29.53;;
19951;SDS011;10137;49.406;19.484;2022-12-18T13:51:58;106.90;;;31.40;;
19951;SDS011;10137;49.406;19.484;2022-12-18T13:54:28;93.37;;;31.93;;
19951;SDS011;10137;49.406;19.484;2022-12-18T13:57:00;103.20;;;32.80;;
19951;SDS011;10137;49.406;19.484;2022-12-18T13:59:33;88.27;;;29.13;;
19951;SDS011;10137;49.406;19.484;2022-12-18T14:02:05;89.80;;;30.40;;
19951;SDS011;10137;49.406;19.484;2022-12-18T14:04:40;87.83;;;29.43;;
19951;SDS011;10137;49.406;19.484;2022-12-18T14:07:09;94.83;;;32.30;;
19951;SDS011;10137;49.406;19.484;2022-12-18T14:09:40;95.90;;;29.90;;
19951;SDS011;10137;49.406;19.484;2022-12-18T14:12:14;106.50;;;33.83;;
19951;SDS011;10137;49.406;19.484;2022-12-18T14:15:01;103.87;;;34.27;;
19951;SDS011;10137;49.406;19.484;2022-12-18T14:17:30;138.57;;;39.13;;
19951;SDS011;10137;49.406;19.484;2022-12-18T14:19:59;116.93;;;36.60;;
19951;SDS011;10137;49.406;19.484;2022-12-18T14:22:26;126.73;;;38.67;;
19951;SDS011;10137;49.406;19.484;2022-12-18T14:27:50;129.63;;;40.77;;
19951;SDS011;10137;49.406;19.484;2022-12-18T14:30:28;120.30;;;38.67;;
19951;SDS011;10137;49.406;19.484;2022-12-18T14:33:01;119.40;;;39.33;;
19951;SDS011;10137;49.406;19.484;2022-12-18T14:35:30;125.27;;;40.33;;